Decoded Metar for LKTB (TURANY in CZECH REPUBLIC) (IATA:BRQ) | Meteo·Mobile Aviation Weather
aviador You're here:

LKTB Decoded Metar

TURANY in CZECH REPUBLIC
Report Time2019-03-21 15:30:00
UTC Time2019-03-21 15:50:51
Flight Rules vfr VFR
Wind180° at 06 kt
W.Decomp.*RWY 10: 1.3 kt HW 5.8 kt RCW
RWY 09: 0.3 kt HW 6.0 kt RCW
W.Rank180° ranks 22
Current wind is above 180° avg. (5.5)
Visibility9999 m
Phenomena:N/A
Clouds:N/A
Expected CloudBase > 6,400 ft AGL from Temp-Dew spread
CeilingNone
Temp14°C (ISA +1)
Dew Point-2°C (33% RH)
AAT9.6°C
QNH1032 hPa
Density Alt318 ft
Elevation807 ft
Report Wrong Elevation
Raw Report
LKTB 211530Z 18006KT CAVOK 14/M02 Q1032 NOSIG=

Extra information for LKTB:More info

Metar Taf Metar & Taf Last 4 Metars F.Rules Stats Wind Profile Meteogram Temp Stats Airport Information Weather charts Add Link Nearby VenuesMetar ALERT Operation Metar Decoded Social comments